createdAt,value
2022-08-25T00:00:27.644Z,7.90
2022-08-25T00:02:57.764Z,5.78
2022-08-25T00:05:33.330Z,6.97
2022-08-25T00:08:06.158Z,7.65
2022-08-25T00:10:40.009Z,6.97
2022-08-25T00:13:11.433Z,5.97
2022-08-25T00:15:41.381Z,7.47
2022-08-25T00:18:14.792Z,5.57
2022-08-25T00:20:50.433Z,5.93
2022-08-25T00:23:20.852Z,7.38
2022-08-25T00:25:50.845Z,5.88
2022-08-25T00:28:22.071Z,6.13
2022-08-25T00:30:52.315Z,6.82
2022-08-25T00:33:21.873Z,8.90
2022-08-25T00:35:52.203Z,7.05
2022-08-25T00:38:22.023Z,7.40
2022-08-25T00:41:05.861Z,6.45
2022-08-25T00:43:50.944Z,7.15
2022-08-25T00:46:25.520Z,6.97
2022-08-25T00:49:02.146Z,6.57
2022-08-25T00:51:42.957Z,9.98
2022-08-25T00:54:20.609Z,6.35
2022-08-25T00:56:52.505Z,5.45
2022-08-25T00:59:26.363Z,6.78
2022-08-25T01:01:57.628Z,7.05
2022-08-25T01:04:27.934Z,6.80
2022-08-25T01:06:59.439Z,5.18
2022-08-25T01:09:32.481Z,9.25
2022-08-25T01:14:35.859Z,7.07
2022-08-25T01:17:17.317Z,8.05
2022-08-25T01:19:50.602Z,7.40
2022-08-25T01:22:21.673Z,8.98
2022-08-25T01:25:01.106Z,6.43
2022-08-25T01:27:30.767Z,8.77
2022-08-25T01:30:00.400Z,8.95
2022-08-25T01:32:30.108Z,6.45
2022-08-25T01:34:59.681Z,7.65
2022-08-25T01:37:30.638Z,9.75
2022-08-25T01:40:00.311Z,9.38
2022-08-25T01:42:55.598Z,7.57
2022-08-25T01:45:25.621Z,8.05
2022-08-25T01:47:58.344Z,8.98
2022-08-25T01:50:29.389Z,8.13
2022-08-25T01:53:07.084Z,8.40
2022-08-25T01:55:52.869Z,9.18
2022-08-25T01:58:26.726Z,10.45
2022-08-25T02:01:01.570Z,8.13
2022-08-25T02:03:32.477Z,8.73
2022-08-25T02:06:04.310Z,7.65
2022-08-25T02:08:36.472Z,9.10
2022-08-25T02:11:06.771Z,8.73
2022-08-25T02:13:36.293Z,9.43
2022-08-25T02:16:06.740Z,7.35
2022-08-25T02:18:36.980Z,8.93
2022-08-25T02:21:07.041Z,10.20
2022-08-25T02:23:37.984Z,10.77
2022-08-25T02:26:07.484Z,8.23
2022-08-25T02:28:38.111Z,8.02
2022-08-25T02:31:08.180Z,8.60
2022-08-25T02:33:37.724Z,10.68
2022-08-25T02:36:08.490Z,9.52
2022-08-25T02:38:40.747Z,7.47
2022-08-25T02:41:14.581Z,12.57
2022-08-25T02:43:46.722Z,6.88
2022-08-25T02:46:19.823Z,7.60
2022-08-25T02:48:51.786Z,7.40
2022-08-25T02:51:23.555Z,8.68
2022-08-25T02:53:54.459Z,8.65
2022-08-25T02:56:25.716Z,8.80
2022-08-25T02:58:55.702Z,8.93
2022-08-25T03:01:28.777Z,10.27
2022-08-25T03:03:59.909Z,9.30
2022-08-25T03:06:29.862Z,13.23
2022-08-25T03:09:01.410Z,11.65
2022-08-25T03:11:40.470Z,13.82
2022-08-25T03:14:11.134Z,10.02
2022-08-25T03:16:42.891Z,11.02
2022-08-25T03:19:16.709Z,10.57
2022-08-25T03:21:46.783Z,10.75
2022-08-25T03:24:17.732Z,12.73
2022-08-25T03:26:55.941Z,11.05
2022-08-25T03:29:29.600Z,11.85
2022-08-25T03:32:00.660Z,13.35
2022-08-25T03:34:31.572Z,12.50
2022-08-25T03:37:01.111Z,12.25
2022-08-25T03:39:32.070Z,12.75
2022-08-25T03:42:04.158Z,13.07
2022-08-25T03:44:33.680Z,14.48
2022-08-25T03:47:03.317Z,14.25
2022-08-25T03:49:32.804Z,15.88
2022-08-25T03:52:04.560Z,15.30
2022-08-25T03:54:35.377Z,13.55
2022-08-25T03:57:06.154Z,14.15
2022-08-25T03:59:38.317Z,13.52
2022-08-25T04:02:08.580Z,15.63
2022-08-25T04:04:38.090Z,13.93
2022-08-25T04:07:08.155Z,15.52
2022-08-25T04:09:39.736Z,15.98
2022-08-25T04:12:10.184Z,16.30
2022-08-25T04:14:39.657Z,13.48
2022-08-25T04:17:09.520Z,14.52
2022-08-25T04:19:39.274Z,15.27
2022-08-25T04:22:08.883Z,12.73
2022-08-25T04:24:39.967Z,9.30
2022-08-25T04:27:09.658Z,13.00
2022-08-25T04:29:39.428Z,13.98
2022-08-25T04:32:09.101Z,12.93
2022-08-25T04:34:39.037Z,13.38
2022-08-25T04:37:09.046Z,14.23
2022-08-25T04:39:40.050Z,13.20
2022-08-25T04:42:09.608Z,13.32
2022-08-25T04:44:39.381Z,14.63
2022-08-25T04:47:09.686Z,14.93
2022-08-25T04:49:39.682Z,17.67
2022-08-25T04:52:32.413Z,14.50
2022-08-25T04:55:03.533Z,14.30
2022-08-25T04:57:33.025Z,15.30
2022-08-25T05:00:02.558Z,16.05
2022-08-25T05:02:32.762Z,16.23
2022-08-25T05:05:04.048Z,16.17
2022-08-25T05:07:33.535Z,20.73
2022-08-25T05:10:04.924Z,17.02
2022-08-25T05:12:34.552Z,19.08
2022-08-25T05:15:26.902Z,15.70
2022-08-25T05:17:57.561Z,13.32
2022-08-25T05:20:27.337Z,14.32
2022-08-25T05:22:56.812Z,17.05
2022-08-25T05:25:27.653Z,11.43
2022-08-25T05:27:57.452Z,20.10
2022-08-25T05:30:26.990Z,12.35
2022-08-25T05:32:57.206Z,15.80
2022-08-25T05:35:26.793Z,19.50
2022-08-25T05:37:57.316Z,17.02
2022-08-25T05:40:28.420Z,19.17
2022-08-25T05:42:57.995Z,19.30
2022-08-25T05:45:27.720Z,17.38
2022-08-25T05:47:57.997Z,22.33
2022-08-25T05:50:27.670Z,22.42
2022-08-25T05:52:57.127Z,19.30
2022-08-25T05:55:28.044Z,23.65
2022-08-25T05:57:57.544Z,21.30
2022-08-25T06:00:27.016Z,17.38
2022-08-25T06:02:55.529Z,20.40
2022-08-25T06:05:25.335Z,17.65
2022-08-25T06:07:54.925Z,20.98
2022-08-25T06:10:24.663Z,16.05
2022-08-25T06:12:56.766Z,19.27
2022-08-25T06:15:28.837Z,21.00
2022-08-25T06:18:05.380Z,19.80
2022-08-25T06:20:35.139Z,21.95
2022-08-25T06:23:04.622Z,17.80
2022-08-25T06:25:34.269Z,20.65
2022-08-25T06:28:05.677Z,17.05
2022-08-25T06:30:35.519Z,17.45
2022-08-25T06:33:05.353Z,19.90
2022-08-25T06:35:34.935Z,18.17
2022-08-25T06:38:05.172Z,16.08
2022-08-25T06:40:34.896Z,17.15
2022-08-25T06:43:08.746Z,19.27
2022-08-25T06:45:38.261Z,19.85
2022-08-25T06:48:07.937Z,19.00
2022-08-25T06:50:39.670Z,19.63
2022-08-25T06:53:09.392Z,19.70
2022-08-25T06:55:39.330Z,20.33
2022-08-25T06:58:11.324Z,19.65
2022-08-25T07:00:41.047Z,15.15
2022-08-25T07:03:10.572Z,18.67
2022-08-25T07:05:43.706Z,17.92
2022-08-25T07:08:13.436Z,17.13
2022-08-25T07:10:42.904Z,17.70
2022-08-25T07:13:19.298Z,16.40
2022-08-25T07:15:48.851Z,18.35
2022-08-25T07:18:18.389Z,15.20
2022-08-25T07:20:48.274Z,16.10
2022-08-25T07:23:18.101Z,14.75
2022-08-25T07:25:47.881Z,13.68
2022-08-25T07:28:19.889Z,15.73
2022-08-25T07:30:52.252Z,15.82
2022-08-25T07:33:21.800Z,14.82
2022-08-25T07:35:50.918Z,14.05
2022-08-25T07:38:21.172Z,15.60
2022-08-25T07:40:54.702Z,11.85
2022-08-25T07:43:27.933Z,16.23
2022-08-25T07:45:57.426Z,13.23
2022-08-25T07:48:26.955Z,15.45
2022-08-25T07:51:01.092Z,15.05
2022-08-25T07:53:32.823Z,12.60
2022-08-25T07:58:39.216Z,14.82
2022-08-25T08:01:15.677Z,14.90
2022-08-25T08:03:50.452Z,13.20
2022-08-25T08:06:25.350Z,12.70
2022-08-25T08:08:58.004Z,14.88
2022-08-25T08:11:33.067Z,14.68
2022-08-25T08:14:05.159Z,14.27
2022-08-25T08:16:35.132Z,12.25
2022-08-25T08:19:05.325Z,12.85
2022-08-25T08:21:37.789Z,14.75
2022-08-25T08:24:24.895Z,11.63
2022-08-25T08:26:59.295Z,13.13
2022-08-25T08:29:30.404Z,13.00
2022-08-25T08:32:01.347Z,13.63
2022-08-25T08:34:31.200Z,13.82
2022-08-25T08:37:02.478Z,17.90
2022-08-25T08:39:32.197Z,13.02
2022-08-25T08:42:24.022Z,11.48
2022-08-25T08:45:20.446Z,12.20
2022-08-25T08:48:09.979Z,9.45
2022-08-25T08:50:57.334Z,11.43
2022-08-25T08:53:37.127Z,13.85
2022-08-25T08:56:12.403Z,8.02
2022-08-25T08:58:50.076Z,10.95
2022-08-25T09:01:29.614Z,7.97
2022-08-25T09:04:09.773Z,8.43
2022-08-25T09:06:44.340Z,7.90
2022-08-25T09:09:21.097Z,15.88
2022-08-25T09:12:04.416Z,9.30
2022-08-25T09:17:45.356Z,7.25
2022-08-25T09:20:57.682Z,6.97
2022-08-25T09:23:47.647Z,8.68
2022-08-25T09:26:31.007Z,9.70
2022-08-25T09:29:16.183Z,7.20
2022-08-25T09:31:48.795Z,6.45
2022-08-25T09:34:24.267Z,8.10
2022-08-25T09:36:53.721Z,6.35
2022-08-25T09:39:23.422Z,7.38
2022-08-25T09:41:57.339Z,7.10
2022-08-25T09:44:36.109Z,6.60
2022-08-25T09:47:14.746Z,6.40
2022-08-25T09:49:49.132Z,5.63
2022-08-25T09:52:34.689Z,6.35
2022-08-25T09:55:34.213Z,7.25
2022-08-25T09:58:22.233Z,6.07
2022-08-25T10:01:24.966Z,7.57
2022-08-25T10:04:02.648Z,9.10
2022-08-25T10:06:45.705Z,7.78
2022-08-25T10:09:30.445Z,8.38
2022-08-25T10:12:04.926Z,6.55
2022-08-25T10:18:25.915Z,7.43
2022-08-25T10:21:18.958Z,6.65
2022-08-25T10:23:55.913Z,6.18
2022-08-25T10:26:56.861Z,5.97
2022-08-25T10:29:54.125Z,5.70
2022-08-25T10:32:38.224Z,6.07
2022-08-25T10:35:15.729Z,6.88
2022-08-25T10:38:05.996Z,7.07
2022-08-25T10:40:48.723Z,6.38
2022-08-25T10:43:31.932Z,7.80
2022-08-25T10:46:16.220Z,6.93
2022-08-25T10:49:00.021Z,5.13
2022-08-25T10:51:56.957Z,6.13
2022-08-25T10:54:45.062Z,5.70
2022-08-25T10:57:37.525Z,5.85
2022-08-25T11:03:19.098Z,8.30
2022-08-25T11:05:57.117Z,7.38
2022-08-25T11:08:37.857Z,8.60
2022-08-25T11:11:14.333Z,8.20
2022-08-25T11:13:54.260Z,6.53
2022-08-25T11:16:37.549Z,7.55
2022-08-25T11:19:18.024Z,6.10
2022-08-25T11:21:57.249Z,8.68
2022-08-25T11:24:48.242Z,6.80
2022-08-25T11:27:32.433Z,6.63
2022-08-25T11:30:09.634Z,6.95
2022-08-25T11:32:42.012Z,7.65
2022-08-25T11:35:15.144Z,6.35
2022-08-25T11:38:01.944Z,6.85
2022-08-25T11:40:54.426Z,9.15
2022-08-25T11:43:48.829Z,6.63
2022-08-25T11:46:45.527Z,8.05
2022-08-25T11:49:49.791Z,6.45
2022-08-25T11:52:53.948Z,7.20
2022-08-25T11:55:46.633Z,7.00
2022-08-25T11:58:41.640Z,7.07
2022-08-25T12:01:47.224Z,7.32
2022-08-25T12:04:44.730Z,6.60
2022-08-25T12:07:26.737Z,9.18
2022-08-25T12:10:20.849Z,5.43
2022-08-25T12:13:43.834Z,5.35
2022-08-25T12:16:44.461Z,6.60
2022-08-25T12:19:49.627Z,7.72
2022-08-25T12:22:55.203Z,8.45
2022-08-25T12:25:47.209Z,9.05
2022-08-25T12:28:43.303Z,7.85
2022-08-25T12:31:37.928Z,7.22
2022-08-25T12:34:36.399Z,8.35
2022-08-25T12:37:14.708Z,7.07
2022-08-25T12:40:01.325Z,8.88
2022-08-25T12:42:36.801Z,9.63
2022-08-25T12:45:37.177Z,7.90
2022-08-25T12:48:57.010Z,8.30
2022-08-25T12:51:30.138Z,7.40
2022-08-25T12:54:19.045Z,10.23
2022-08-25T12:56:58.640Z,8.90
2022-08-25T12:59:39.186Z,8.40
2022-08-25T13:02:39.785Z,9.18
2022-08-25T13:06:09.259Z,12.25
2022-08-25T13:10:00.957Z,17.08
2022-08-25T13:12:41.086Z,8.48
2022-08-25T13:15:17.996Z,9.73
2022-08-25T13:17:47.488Z,7.18
2022-08-25T13:20:25.405Z,10.90
2022-08-25T13:23:06.521Z,8.95
2022-08-25T13:25:49.332Z,11.43
2022-08-25T13:28:30.476Z,12.23
2022-08-25T13:31:08.020Z,10.90
2022-08-25T13:33:38.489Z,7.43
2022-08-25T13:36:35.014Z,10.50
2022-08-25T13:39:16.008Z,10.25
2022-08-25T13:41:55.488Z,8.18
2022-08-25T13:44:29.125Z,10.32
2022-08-25T13:47:33.581Z,8.60
2022-08-25T13:50:22.854Z,8.90
2022-08-25T13:52:59.444Z,9.25
2022-08-25T13:55:38.291Z,10.27
2022-08-25T13:58:39.217Z,9.20
2022-08-25T14:01:47.141Z,8.85
2022-08-25T14:04:32.472Z,13.30
2022-08-25T14:07:33.713Z,12.07
2022-08-25T14:10:09.802Z,8.15
2022-08-25T14:12:46.198Z,12.98
2022-08-25T14:15:33.408Z,7.30
2022-08-25T14:18:09.542Z,7.57
2022-08-25T14:20:50.345Z,7.93
2022-08-25T14:23:24.132Z,10.68
2022-08-25T14:25:56.631Z,9.00
2022-08-25T14:28:30.280Z,14.30
2022-08-25T14:31:06.607Z,8.60
2022-08-25T14:33:44.601Z,15.90
2022-08-25T14:36:20.950Z,9.35
2022-08-25T14:38:54.864Z,7.63
2022-08-25T14:41:26.490Z,12.93
2022-08-25T14:43:55.954Z,10.95
2022-08-25T14:46:32.407Z,8.43
2022-08-25T14:49:06.470Z,9.77
2022-08-25T14:51:37.085Z,13.60
2022-08-25T14:54:12.309Z,9.32
2022-08-25T14:56:42.991Z,10.82
2022-08-25T14:59:13.380Z,8.60
2022-08-25T15:01:44.789Z,8.25
2022-08-25T15:04:18.582Z,10.63
2022-08-25T15:06:56.814Z,10.57
2022-08-25T15:09:33.321Z,16.05
2022-08-25T15:12:03.533Z,9.13
2022-08-25T15:14:34.316Z,12.73
2022-08-25T15:17:05.225Z,13.57
2022-08-25T15:19:43.422Z,12.63
2022-08-25T15:22:15.264Z,12.57
2022-08-25T15:24:44.733Z,12.75
2022-08-25T15:27:15.142Z,11.68
2022-08-25T15:29:44.668Z,10.23
2022-08-25T15:32:15.860Z,11.40
2022-08-25T15:34:47.514Z,10.10
2022-08-25T15:37:18.804Z,9.80
2022-08-25T15:39:49.131Z,9.60
2022-08-25T15:42:19.345Z,14.68
2022-08-25T15:44:53.470Z,11.00
2022-08-25T15:47:25.134Z,12.07
2022-08-25T15:50:06.761Z,15.48
2022-08-25T15:55:19.863Z,10.18
2022-08-25T15:57:50.247Z,13.00
2022-08-25T16:00:21.639Z,10.82
2022-08-25T16:02:52.807Z,12.15
2022-08-25T16:05:25.972Z,12.98
2022-08-25T16:07:56.006Z,10.07
2022-08-25T16:10:26.617Z,12.35
2022-08-25T16:12:56.583Z,11.50
2022-08-25T16:15:28.854Z,15.05
2022-08-25T16:18:03.179Z,13.82
2022-08-25T16:20:37.152Z,12.82
2022-08-25T16:23:06.886Z,12.60
2022-08-25T16:25:42.407Z,12.02
2022-08-25T16:28:18.700Z,11.20
2022-08-25T16:30:52.604Z,13.20
2022-08-25T16:33:24.272Z,13.30
2022-08-25T16:35:55.080Z,12.55
2022-08-25T16:38:24.593Z,16.30
2022-08-25T16:40:55.227Z,13.48
2022-08-25T16:43:25.559Z,13.13
2022-08-25T16:46:01.939Z,14.60
2022-08-25T16:48:33.175Z,11.48
2022-08-25T16:51:07.376Z,13.77
2022-08-25T16:53:55.204Z,12.27
2022-08-25T16:56:27.275Z,13.50
2022-08-25T16:59:00.611Z,14.93
2022-08-25T17:01:34.034Z,14.30
2022-08-25T17:04:06.364Z,13.23
2022-08-25T17:06:40.069Z,14.48
2022-08-25T17:09:13.027Z,15.13
2022-08-25T17:11:46.809Z,13.93
2022-08-25T17:14:19.852Z,11.43
2022-08-25T17:16:51.209Z,9.73
2022-08-25T17:19:23.618Z,13.10
2022-08-25T17:21:54.547Z,15.05
2022-08-25T17:24:29.386Z,12.45
2022-08-25T17:27:02.536Z,11.15
2022-08-25T17:29:32.906Z,12.43
2022-08-25T17:34:35.607Z,18.80
2022-08-25T17:37:05.638Z,12.75
2022-08-25T17:39:35.159Z,11.82
2022-08-25T17:42:06.212Z,13.75
2022-08-25T17:44:37.466Z,14.38
2022-08-25T17:47:07.299Z,13.45
2022-08-25T17:49:38.654Z,18.60
2022-08-25T17:52:08.819Z,18.20
2022-08-25T17:54:38.365Z,16.73
2022-08-25T17:57:07.955Z,15.93
2022-08-25T17:59:38.717Z,15.60
2022-08-25T18:02:10.487Z,14.30
2022-08-25T18:04:41.934Z,12.30
2022-08-25T18:07:11.502Z,14.32
2022-08-25T18:09:41.314Z,17.65
2022-08-25T18:12:10.996Z,18.05
2022-08-25T18:14:41.471Z,18.50
2022-08-25T18:17:15.693Z,16.13
2022-08-25T18:19:52.983Z,16.13
2022-08-25T18:22:22.543Z,13.50
2022-08-25T18:24:52.458Z,17.40
2022-08-25T18:27:22.407Z,17.83
2022-08-25T18:29:53.822Z,15.03
2022-08-25T18:32:26.049Z,16.90
2022-08-25T18:37:44.752Z,17.05
2022-08-25T18:40:24.637Z,17.92
2022-08-25T18:42:57.524Z,14.30
2022-08-25T18:45:32.906Z,16.52
2022-08-25T18:48:03.806Z,14.13
2022-08-25T18:53:10.634Z,16.60
2022-08-25T18:55:43.250Z,16.20
2022-08-25T18:58:14.282Z,16.65
2022-08-25T19:00:45.683Z,16.42
2022-08-25T19:03:20.186Z,14.25
2022-08-25T19:05:57.259Z,17.88
2022-08-25T19:08:27.359Z,18.92
2022-08-25T19:10:56.946Z,16.20
2022-08-25T19:13:26.640Z,17.05
2022-08-25T19:15:56.378Z,16.92
2022-08-25T19:18:29.025Z,19.35
2022-08-25T19:21:00.100Z,14.38
2022-08-25T19:23:29.555Z,22.05
2022-08-25T19:25:59.357Z,22.52
2022-08-25T19:28:29.174Z,17.70
2022-08-25T19:30:58.906Z,18.00
2022-08-25T19:33:42.589Z,17.23
2022-08-25T19:36:18.382Z,18.55
2022-08-25T19:38:53.349Z,17.10
2022-08-25T19:41:23.581Z,14.90
2022-08-25T19:43:56.695Z,16.23
2022-08-25T19:46:33.320Z,19.15
2022-08-25T19:49:08.098Z,18.92
2022-08-25T19:51:44.599Z,20.20
2022-08-25T19:54:18.195Z,16.63
2022-08-25T19:56:55.037Z,16.98
2022-08-25T19:59:42.391Z,15.70
2022-08-25T20:02:24.969Z,20.80
2022-08-25T20:04:59.462Z,21.42
2022-08-25T20:07:32.606Z,22.70
2022-08-25T20:10:03.768Z,15.13
2022-08-25T20:12:35.468Z,21.77
2022-08-25T20:15:06.902Z,17.43
2022-08-25T20:17:36.658Z,16.88
2022-08-25T20:20:15.665Z,17.60
2022-08-25T20:22:47.224Z,19.88
2022-08-25T20:25:22.977Z,17.52
2022-08-25T20:27:56.776Z,21.70
2022-08-25T20:30:30.716Z,19.33
2022-08-25T20:33:00.732Z,18.35
2022-08-25T20:35:30.988Z,18.90
2022-08-25T20:38:02.098Z,16.95
2022-08-25T20:40:32.498Z,21.38
2022-08-25T20:43:03.292Z,18.83
2022-08-25T20:45:33.408Z,19.23
2022-08-25T20:48:03.183Z,22.80
2022-08-25T20:50:34.626Z,21.48
2022-08-25T20:53:05.746Z,23.55
2022-08-25T20:55:43.736Z,19.15
2022-08-25T20:58:14.256Z,20.45
2022-08-25T21:00:45.005Z,21.52
2022-08-25T21:03:14.690Z,17.98
2022-08-25T21:05:44.815Z,15.68
2022-08-25T21:08:16.683Z,20.27
2022-08-25T21:10:47.791Z,17.17
2022-08-25T21:13:17.337Z,22.70
2022-08-25T21:15:48.910Z,18.00
2022-08-25T21:18:18.701Z,17.70
2022-08-25T21:20:48.201Z,15.30
2022-08-25T21:23:19.658Z,17.92
2022-08-25T21:25:49.758Z,16.95
2022-08-25T21:28:20.237Z,21.48
2022-08-25T21:30:50.786Z,20.40
2022-08-25T21:33:28.232Z,17.35
2022-08-25T21:35:57.977Z,15.55
2022-08-25T21:38:29.376Z,17.38
2022-08-25T21:41:00.555Z,20.85
2022-08-25T21:43:30.117Z,26.67
2022-08-25T21:45:59.756Z,14.23
2022-08-25T21:48:29.519Z,16.92
2022-08-25T21:51:07.347Z,24.45
2022-08-25T21:53:40.904Z,20.58
2022-08-25T21:56:16.215Z,14.95
2022-08-25T21:58:49.165Z,18.98
2022-08-25T22:01:21.225Z,16.23
2022-08-25T22:03:52.587Z,21.45
2022-08-25T22:06:23.105Z,20.17
2022-08-25T22:08:54.640Z,16.77
2022-08-25T22:11:24.472Z,19.00
2022-08-25T22:13:55.316Z,19.20
2022-08-25T22:16:28.038Z,15.57
2022-08-25T22:18:59.466Z,17.47
2022-08-25T22:21:32.677Z,18.02
2022-08-25T22:24:04.240Z,20.40
2022-08-25T22:26:35.145Z,22.17
2022-08-25T22:29:05.759Z,16.65
2022-08-25T22:31:36.945Z,18.15
2022-08-25T22:34:07.697Z,17.52
2022-08-25T22:36:39.800Z,18.35
2022-08-25T22:39:10.839Z,29.88
2022-08-25T22:41:41.644Z,15.27
2022-08-25T22:44:30.002Z,21.75
2022-08-25T22:46:59.579Z,21.10
2022-08-25T22:49:30.781Z,20.40
2022-08-25T22:52:00.422Z,18.67
2022-08-25T22:54:31.353Z,16.15
2022-08-25T22:57:06.721Z,19.08
2022-08-25T22:59:36.526Z,19.67
2022-08-25T23:02:06.542Z,24.42
2022-08-25T23:04:36.397Z,20.35
2022-08-25T23:07:11.729Z,25.05
2022-08-25T23:09:44.041Z,18.35
2022-08-25T23:12:14.193Z,19.73
2022-08-25T23:14:44.378Z,16.13
2022-08-25T23:17:14.139Z,20.67
2022-08-25T23:19:43.785Z,19.63
2022-08-25T23:22:16.327Z,19.25
2022-08-25T23:24:51.874Z,21.10
2022-08-25T23:27:23.806Z,20.42
2022-08-25T23:29:53.290Z,18.40
2022-08-25T23:32:23.190Z,21.50
2022-08-25T23:34:57.617Z,17.20
2022-08-25T23:37:27.110Z,22.65
2022-08-25T23:39:58.749Z,21.88
2022-08-25T23:42:28.544Z,19.75
2022-08-25T23:44:58.058Z,17.23
2022-08-25T23:47:27.659Z,18.50
2022-08-25T23:49:57.168Z,20.75
2022-08-25T23:52:27.298Z,17.05
2022-08-25T23:54:58.884Z,23.98
2022-08-25T23:57:28.351Z,19.30
2022-08-25T23:59:58.475Z,22.40
